Anzoras — EAZC — position and weather

sailwx.info

Track history (hours):
 
Tides and Currents Weather Stations Pressure Air Temp Water Temp Dewpoint Dewpoint Depression Visibility Wind Speed Wind Dir Waves Ship Positions

Anzoras

Last reported at 2016-Sep-29 00:33 UTC. Time now 2016-Oct-01 13:52 UTC.
Position N 44°13' W 001°37'.

Length 100 m; draft 6.1 m.

Type: Cargo ship. MMSI: 224376000.

Date/timePositionNaut miles runAvg speedWind from/ knotsBaromVisibWave heightAir tempDewpointWater temp
2016-Sep-29 00:33N 44°13' W 001°37'29 9.7
2016-Sep-28 21:33N 44°42' W 001°40'22 9.8
2016-Sep-28 19:17N 45°04' W 001°41'109 9.8
2016-Sep-28 08:10N 46°47' W 002°36'42 9.1
2016-Sep-28 03:33N 47°15' W 001°51'9 8.3
2016-Sep-28 02:32N 47°12' W 001°39'1 1.5
2016-Sep-28 01:32N 47°12' W 001°37'0 0.0
2016-Sep-27 23:32N 47°12' W 001°37'0 0.0
2016-Sep-27 19:32N 47°12' W 001°37'0 0.0
2016-Sep-27 14:20N 47°12' W 001°37'0 0.0
2016-Sep-27 10:32N 47°12' W 001°37'0 0.0
2016-Sep-27 00:32N 47°12' W 001°37'0 0.0
2016-Sep-26 20:29N 47°12' W 001°37'0 0.0
2016-Sep-26 19:32N 47°12' W 001°37'0 0.0
2016-Sep-26 15:32N 47°12' W 001°37'0 0.0
2016-Sep-26 08:29N 47°12' W 001°37'0 0.0
2016-Sep-26 02:32N 47°12' W 001°37'0 0.0
2016-Sep-26 01:23N 47°12' W 001°37'0 0.0
2016-Sep-26 00:32N 47°12' W 001°37'0 0.0
2016-Sep-25 21:32N 47°12' W 001°37'0 0.0
2016-Sep-25 17:26N 47°12' W 001°37'0 0.0
2016-Sep-25 16:32N 47°12' W 001°37'0 0.0
2016-Sep-25 15:32N 47°12' W 001°37'0 0.0
2016-Sep-25 14:32N 47°12' W 001°37'0 0.0
2016-Sep-25 12:32N 47°12' W 001°37'0 0.0
2016-Sep-25 11:29N 47°12' W 001°37'0 0.0
2016-Sep-25 10:29N 47°12' W 001°37'0 0.0
2016-Sep-25 09:32N 47°12' W 001°37'0 0.0
2016-Sep-25 07:29N 47°12' W 001°37'0 0.0
2016-Sep-25 04:32N 47°12' W 001°37'0 0.0
2016-Sep-25 00:32N 47°12' W 001°37'0 0.0
2016-Sep-24 22:32N 47°12' W 001°37'0 0.0
2016-Sep-24 21:32N 47°12' W 001°37'0 0.0
2016-Sep-24 19:32N 47°12' W 001°37'0 0.0
2016-Sep-24 18:29N 47°12' W 001°37'0 0.0
2016-Sep-24 17:32N 47°12' W 001°37'0 0.0
2016-Sep-24 16:32N 47°12' W 001°37'0 0.0
2016-Sep-24 14:32N 47°12' W 001°37'1 0.3
2016-Sep-24 12:33N 47°12' W 001°38'21 9.9
2016-Sep-24 10:28N 47°18' W 002°07'1011.3
2016-Sep-24 09:33N 47°11' W 002°18'39 6.5
2016-Sep-24 03:33N 46°32' W 002°17'1211.8
2016-Sep-24 02:33N 46°24' W 002°05'1212.0
2016-Sep-24 01:33N 46°15' W 001°52'1211.6
2016-Sep-24 00:32N 46°08' W 001°39'15 0.4
2016-Sep-22 04:34N 46°06' W 001°17'7 6.6
2016-Sep-22 03:33N 46°07' W 001°27'27 7.8
2016-Sep-22 00:04N 46°01' W 002°05'14 8.0
2016-Sep-21 22:22N 45°54' W 002°22'  
2016-Sep-19 07:34N 39°12' W 009°49'10 9.9
2016-Sep-19 06:34N 39°02' W 009°50'24 8.0
2016-Sep-19 03:34N 38°38' W 009°48'9 9.2
2016-Sep-19 02:33N 38°29' W 009°46'  
Track history (hours):
 
Tides and Currents Weather Stations Pressure Air Temp Water Temp Dewpoint Dewpoint Depression Visibility Wind Speed Wind Dir Waves Ship Positions

Anzoras

Last reported at 2016-Sep-29 00:33 UTC. Time now 2016-Oct-01 13:52 UTC.
Position N 44°13' W 001°37'.

Length 100 m; draft 6.1 m.

Type: Cargo ship. MMSI: 224376000.

Date/timePositionNaut miles runAvg speedWind from/ knotsBaromVisibWave heightAir tempDewpointWater temp
2016-Sep-29 00:33N 44°13' W 001°37'29 9.7
2016-Sep-28 21:33N 44°42' W 001°40'22 9.8
2016-Sep-28 19:17N 45°04' W 001°41'109 9.8
2016-Sep-28 08:10N 46°47' W 002°36'42 9.1
2016-Sep-28 03:33N 47°15' W 001°51'9 8.3
2016-Sep-28 02:32N 47°12' W 001°39'1 1.5
2016-Sep-28 01:32N 47°12' W 001°37'0 0.0
2016-Sep-27 23:32N 47°12' W 001°37'0 0.0
2016-Sep-27 19:32N 47°12' W 001°37'0 0.0
2016-Sep-27 14:20N 47°12' W 001°37'0 0.0
2016-Sep-27 10:32N 47°12' W 001°37'0 0.0
2016-Sep-27 00:32N 47°12' W 001°37'0 0.0
2016-Sep-26 20:29N 47°12' W 001°37'0 0.0
2016-Sep-26 19:32N 47°12' W 001°37'0 0.0
2016-Sep-26 15:32N 47°12' W 001°37'0 0.0
2016-Sep-26 08:29N 47°12' W 001°37'0 0.0
2016-Sep-26 02:32N 47°12' W 001°37'0 0.0
2016-Sep-26 01:23N 47°12' W 001°37'0 0.0
2016-Sep-26 00:32N 47°12' W 001°37'0 0.0
2016-Sep-25 21:32N 47°12' W 001°37'0 0.0
2016-Sep-25 17:26N 47°12' W 001°37'0 0.0
2016-Sep-25 16:32N 47°12' W 001°37'0 0.0
2016-Sep-25 15:32N 47°12' W 001°37'0 0.0
2016-Sep-25 14:32N 47°12' W 001°37'0 0.0
2016-Sep-25 12:32N 47°12' W 001°37'0 0.0
2016-Sep-25 11:29N 47°12' W 001°37'0 0.0
2016-Sep-25 10:29N 47°12' W 001°37'0 0.0
2016-Sep-25 09:32N 47°12' W 001°37'0 0.0
2016-Sep-25 07:29N 47°12' W 001°37'0 0.0
2016-Sep-25 04:32N 47°12' W 001°37'0 0.0
2016-Sep-25 00:32N 47°12' W 001°37'0 0.0
2016-Sep-24 22:32N 47°12' W 001°37'0 0.0
2016-Sep-24 21:32N 47°12' W 001°37'0 0.0
2016-Sep-24 19:32N 47°12' W 001°37'0 0.0
2016-Sep-24 18:29N 47°12' W 001°37'0 0.0
2016-Sep-24 17:32N 47°12' W 001°37'0 0.0
2016-Sep-24 16:32N 47°12' W 001°37'0 0.0
2016-Sep-24 14:32N 47°12' W 001°37'1 0.3
2016-Sep-24 12:33N 47°12' W 001°38'21 9.9
2016-Sep-24 10:28N 47°18' W 002°07'1011.3
2016-Sep-24 09:33N 47°11' W 002°18'39 6.5
2016-Sep-24 03:33N 46°32' W 002°17'1211.8
2016-Sep-24 02:33N 46°24' W 002°05'1212.0
2016-Sep-24 01:33N 46°15' W 001°52'1211.6
2016-Sep-24 00:32N 46°08' W 001°39'15 0.4
2016-Sep-22 04:34N 46°06' W 001°17'7 6.6
2016-Sep-22 03:33N 46°07' W 001°27'27 7.8
2016-Sep-22 00:04N 46°01' W 002°05'14 8.0
2016-Sep-21 22:22N 45°54' W 002°22'  
2016-Sep-19 07:34N 39°12' W 009°49'10 9.9
2016-Sep-19 06:34N 39°02' W 009°50'24 8.0
2016-Sep-19 03:34N 38°38' W 009°48'9 9.2
2016-Sep-19 02:33N 38°29' W 009°46'  

Dump ship's entire track history